createdAt,value
2023-01-22T00:01:12.501Z,1.27
2023-01-22T00:03:41.107Z,1.20
2023-01-22T00:06:10.407Z,0.90
2023-01-22T00:08:38.663Z,1.50
2023-01-22T00:11:06.880Z,1.80
2023-01-22T00:13:35.188Z,1.30
2023-01-22T00:16:04.484Z,0.80
2023-01-22T00:18:32.399Z,0.98
2023-01-22T00:21:00.326Z,1.30
2023-01-22T00:23:28.134Z,0.80
2023-01-22T00:26:02.323Z,0.95
2023-01-22T00:28:30.732Z,0.73
2023-01-22T00:30:59.047Z,1.30
2023-01-22T00:33:28.432Z,0.95
2023-01-22T00:35:56.465Z,1.35
2023-01-22T00:38:32.194Z,0.90
2023-01-22T00:41:02.143Z,0.85
2023-01-22T00:43:30.437Z,0.75
2023-01-22T00:45:58.509Z,1.02
2023-01-22T00:48:27.981Z,0.85
2023-01-22T00:50:55.813Z,0.60
2023-01-22T00:53:23.651Z,0.70
2023-01-22T00:55:52.431Z,1.10
2023-01-22T00:58:20.772Z,0.70
2023-01-22T01:00:48.685Z,0.85
2023-01-22T01:03:30.978Z,0.68
2023-01-22T01:06:01.726Z,0.70
2023-01-22T01:08:31.000Z,0.85
2023-01-22T01:11:00.645Z,0.85
2023-01-22T01:13:30.251Z,0.60
2023-01-22T01:16:03.133Z,0.50
2023-01-22T01:18:32.019Z,0.68
2023-01-22T01:21:02.054Z,1.00
2023-01-22T01:23:30.222Z,0.90
2023-01-22T01:25:58.452Z,1.08
2023-01-22T01:28:28.649Z,0.70
2023-01-22T01:30:56.560Z,0.95
2023-01-22T01:33:24.448Z,0.65
2023-01-22T01:36:01.485Z,0.80
2023-01-22T01:38:29.375Z,0.70
2023-01-22T01:40:57.179Z,0.98
2023-01-22T01:43:25.001Z,0.95
2023-01-22T01:45:53.008Z,0.80
2023-01-22T01:48:27.385Z,0.80
2023-01-22T01:51:00.379Z,0.60
2023-01-22T01:53:30.193Z,0.68
2023-01-22T01:55:59.916Z,0.90
2023-01-22T01:58:31.177Z,0.90
2023-01-22T02:01:02.354Z,0.77
2023-01-22T02:03:31.489Z,0.77
2023-01-22T02:05:59.286Z,1.15
2023-01-22T02:08:27.211Z,0.80
2023-01-22T02:10:56.709Z,0.60
2023-01-22T02:13:28.833Z,0.50
2023-01-22T02:15:56.975Z,0.70
2023-01-22T02:18:24.781Z,0.57
2023-01-22T02:20:55.330Z,0.73
2023-01-22T02:23:23.452Z,0.55
2023-01-22T02:25:52.013Z,0.65
2023-01-22T02:28:20.370Z,0.70
2023-01-22T02:30:48.232Z,0.50
2023-01-22T02:33:16.174Z,0.60
2023-01-22T02:35:43.996Z,0.70
2023-01-22T02:38:14.155Z,0.60
2023-01-22T02:40:49.107Z,0.70
2023-01-22T02:43:17.336Z,0.40
2023-01-22T02:45:45.257Z,0.50
2023-01-22T02:48:13.123Z,0.80
2023-01-22T02:50:40.936Z,1.02
2023-01-22T02:53:08.853Z,0.68
2023-01-22T02:55:38.830Z,0.80
2023-01-22T02:58:06.995Z,0.70
2023-01-22T03:00:34.789Z,0.95
2023-01-22T03:03:07.670Z,0.70
2023-01-22T03:05:35.558Z,0.40
2023-01-22T03:08:03.361Z,0.45
2023-01-22T03:10:31.201Z,0.38
2023-01-22T03:13:17.869Z,0.80
2023-01-22T03:16:03.456Z,0.77
2023-01-22T03:18:50.394Z,0.82
2023-01-22T03:21:18.752Z,0.55
2023-01-22T03:23:48.282Z,0.60
2023-01-22T03:26:16.580Z,0.68
2023-01-22T03:28:46.009Z,0.60
2023-01-22T03:31:14.675Z,1.20
2023-01-22T03:33:43.020Z,0.60
2023-01-22T03:36:13.056Z,0.80
2023-01-22T03:38:41.140Z,0.50
2023-01-22T03:41:11.624Z,0.70
2023-01-22T03:43:39.711Z,0.50
2023-01-22T03:46:12.136Z,0.60
2023-01-22T03:48:40.592Z,0.70
2023-01-22T03:51:10.857Z,0.90
2023-01-22T03:53:39.017Z,0.40
2023-01-22T03:56:09.336Z,0.40
2023-01-22T03:58:37.485Z,0.70
2023-01-22T04:01:07.502Z,0.55
2023-01-22T04:03:37.093Z,0.50
2023-01-22T04:06:06.020Z,0.50
2023-01-22T04:08:35.627Z,0.50
2023-01-22T04:11:03.780Z,0.50
2023-01-22T04:13:33.619Z,0.60
2023-01-22T04:16:01.909Z,0.57
2023-01-22T04:18:29.738Z,0.40
2023-01-22T04:20:59.020Z,0.65
2023-01-22T04:23:27.116Z,0.80
2023-01-22T04:25:55.312Z,0.75
2023-01-22T04:28:23.119Z,0.60
2023-01-22T04:30:53.079Z,0.60
2023-01-22T04:33:21.499Z,0.40
2023-01-22T04:35:51.969Z,0.50
2023-01-22T04:38:21.117Z,0.60
2023-01-22T04:40:49.283Z,0.60
2023-01-22T04:43:17.297Z,0.65
2023-01-22T04:45:45.131Z,0.70
2023-01-22T04:48:13.964Z,0.60
2023-01-22T04:50:41.809Z,0.50
2023-01-22T04:53:10.643Z,0.50
2023-01-22T04:55:41.827Z,0.50
2023-01-22T04:58:09.998Z,0.60
2023-01-22T05:00:38.160Z,0.73
2023-01-22T05:03:06.579Z,0.70
2023-01-22T05:05:35.130Z,0.60
2023-01-22T05:08:03.234Z,0.80
2023-01-22T05:10:31.139Z,0.50
2023-01-22T05:13:04.091Z,0.50
2023-01-22T05:15:32.056Z,0.60
2023-01-22T05:17:59.913Z,0.70
2023-01-22T05:20:27.868Z,0.50
2023-01-22T05:22:55.642Z,0.50
2023-01-22T05:25:23.415Z,0.60
2023-01-22T05:27:51.233Z,0.77
2023-01-22T05:30:20.747Z,0.63
2023-01-22T05:32:48.641Z,0.60
2023-01-22T05:35:16.583Z,0.50
2023-01-22T05:37:44.378Z,0.60
2023-01-22T05:40:13.277Z,0.50
2023-01-22T05:42:41.235Z,0.50
2023-01-22T05:45:10.123Z,0.50
2023-01-22T05:47:39.230Z,0.57
2023-01-22T05:50:07.672Z,0.50
2023-01-22T05:52:35.525Z,0.50
2023-01-22T05:55:03.310Z,0.60
2023-01-22T05:57:33.019Z,0.52
2023-01-22T06:00:00.806Z,0.50
2023-01-22T06:02:28.622Z,0.60
2023-01-22T06:04:57.848Z,0.60
2023-01-22T06:07:25.760Z,0.70
2023-01-22T06:09:53.538Z,0.60
2023-01-22T06:12:21.512Z,0.50
2023-01-22T06:14:49.334Z,0.50
2023-01-22T06:17:17.295Z,0.45
2023-01-22T06:19:45.072Z,0.88
2023-01-22T06:22:14.261Z,0.45
2023-01-22T06:24:42.047Z,0.50
2023-01-22T06:27:09.858Z,0.60
2023-01-22T06:29:39.979Z,0.60
2023-01-22T06:32:08.026Z,0.55
2023-01-22T06:34:35.864Z,0.65
2023-01-22T06:37:03.656Z,0.40
2023-01-22T06:39:32.874Z,0.57
2023-01-22T06:42:01.171Z,0.40
2023-01-22T06:44:28.966Z,0.70
2023-01-22T06:46:56.916Z,0.50
2023-01-22T06:49:24.776Z,0.50
2023-01-22T06:51:52.608Z,0.52
2023-01-22T06:54:20.472Z,0.80
2023-01-22T06:56:49.607Z,0.68
2023-01-22T06:59:18.163Z,0.63
2023-01-22T07:01:46.158Z,0.63
2023-01-22T07:04:14.055Z,0.60
2023-01-22T07:06:41.919Z,0.47
2023-01-22T07:09:09.838Z,0.50
2023-01-22T07:11:37.748Z,0.60
2023-01-22T07:14:07.085Z,0.70
2023-01-22T07:16:35.017Z,0.60
2023-01-22T07:19:02.975Z,0.50
2023-01-22T07:21:30.824Z,0.60
2023-01-22T07:23:58.742Z,0.50
2023-01-22T07:26:26.740Z,0.77
2023-01-22T07:28:54.624Z,0.50
2023-01-22T07:31:23.911Z,0.50
2023-01-22T07:33:51.746Z,0.50
2023-01-22T07:36:19.559Z,0.55
2023-01-22T07:38:47.345Z,0.55
2023-01-22T07:41:25.427Z,0.75
2023-01-22T07:43:56.076Z,0.70
2023-01-22T07:46:25.814Z,0.60
2023-01-22T07:48:53.728Z,0.50
2023-01-22T07:51:22.481Z,0.50
2023-01-22T07:53:50.462Z,0.55
2023-01-22T07:56:19.190Z,0.60
2023-01-22T07:58:47.200Z,0.55
2023-01-22T08:01:15.722Z,0.50
2023-01-22T08:03:45.291Z,0.50
2023-01-22T08:06:16.961Z,0.60
2023-01-22T08:08:45.020Z,0.40
2023-01-22T08:11:14.141Z,0.60
2023-01-22T08:13:42.188Z,0.50
2023-01-22T08:16:10.259Z,0.50
2023-01-22T08:18:38.256Z,0.50
2023-01-22T08:21:07.600Z,0.65
2023-01-22T08:23:35.511Z,0.70
2023-01-22T08:26:04.299Z,0.73
2023-01-22T08:28:32.583Z,0.70
2023-01-22T08:31:01.888Z,0.60
2023-01-22T08:33:33.335Z,0.57
2023-01-22T08:36:01.323Z,0.68
2023-01-22T08:38:30.699Z,0.60
2023-01-22T08:40:58.587Z,0.88
2023-01-22T08:43:26.508Z,0.63
2023-01-22T08:45:54.438Z,0.47
2023-01-22T08:48:22.976Z,0.73
2023-01-22T08:50:50.897Z,0.90
2023-01-22T08:53:18.815Z,0.60
2023-01-22T08:55:51.571Z,0.60
2023-01-22T08:58:20.931Z,0.60
2023-01-22T09:00:49.014Z,0.70
2023-01-22T09:03:16.937Z,0.50
2023-01-22T09:05:44.900Z,0.60
2023-01-22T09:08:12.817Z,0.70
2023-01-22T09:10:40.941Z,1.00
2023-01-22T09:13:10.745Z,0.60
2023-01-22T09:15:39.286Z,0.47
2023-01-22T09:18:07.255Z,0.80
2023-01-22T09:20:35.195Z,0.70
2023-01-22T09:23:02.996Z,0.98
2023-01-22T09:25:32.033Z,0.52
2023-01-22T09:28:00.606Z,1.50
2023-01-22T09:30:31.047Z,0.90
2023-01-22T09:32:58.982Z,0.50
2023-01-22T09:35:28.268Z,0.70
2023-01-22T09:37:56.291Z,0.80
2023-01-22T09:40:28.876Z,0.60
2023-01-22T09:43:04.429Z,0.80
2023-01-22T09:45:38.067Z,0.63
2023-01-22T09:48:12.196Z,1.42
2023-01-22T09:50:42.282Z,0.65
2023-01-22T09:53:14.951Z,0.60
2023-01-22T09:55:47.993Z,0.80
2023-01-22T09:58:18.756Z,0.90
2023-01-22T10:00:51.053Z,0.82
2023-01-22T10:03:24.437Z,0.60
2023-01-22T10:05:57.671Z,0.60
2023-01-22T10:08:29.702Z,0.70
2023-01-22T10:11:00.999Z,0.70
2023-01-22T10:13:30.974Z,1.00
2023-01-22T10:16:00.822Z,0.80
2023-01-22T10:18:33.376Z,0.80
2023-01-22T10:21:05.570Z,0.70
2023-01-22T10:23:35.325Z,0.90
2023-01-22T10:26:14.191Z,0.55
2023-01-22T10:28:46.247Z,0.60
2023-01-22T10:31:29.651Z,0.68
2023-01-22T10:34:02.736Z,0.60
2023-01-22T10:36:31.957Z,0.50
2023-01-22T10:39:13.323Z,0.60
2023-01-22T10:41:41.917Z,0.63
2023-01-22T10:44:20.779Z,0.70
2023-01-22T10:46:50.913Z,0.88
2023-01-22T10:49:21.609Z,0.55
2023-01-22T10:51:55.301Z,0.60
2023-01-22T10:54:29.196Z,0.82
2023-01-22T10:57:07.413Z,0.70
2023-01-22T10:59:35.570Z,0.50
2023-01-22T11:02:23.671Z,0.70
2023-01-22T11:04:52.284Z,0.60
2023-01-22T11:07:24.649Z,0.60
2023-01-22T11:10:00.202Z,1.00
2023-01-22T11:12:30.531Z,0.70
2023-01-22T11:15:06.421Z,0.70
2023-01-22T11:17:39.437Z,0.75
2023-01-22T11:20:19.114Z,0.90
2023-01-22T11:22:58.747Z,0.65
2023-01-22T11:25:31.663Z,0.57
2023-01-22T11:28:09.368Z,0.75
2023-01-22T11:30:57.120Z,0.50
2023-01-22T11:33:43.517Z,1.00
2023-01-22T11:36:17.919Z,0.82
2023-01-22T11:38:51.206Z,0.60
2023-01-22T11:41:44.391Z,0.70
2023-01-22T11:44:39.017Z,0.80
2023-01-22T11:47:21.783Z,0.80
2023-01-22T11:50:04.570Z,0.85
2023-01-22T11:52:43.230Z,1.08
2023-01-22T11:55:40.992Z,0.80
2023-01-22T11:58:17.773Z,0.50
2023-01-22T12:00:51.563Z,0.70
2023-01-22T12:03:44.848Z,0.60
2023-01-22T12:06:26.167Z,0.60
2023-01-22T12:09:04.848Z,0.60
2023-01-22T12:11:45.778Z,0.60
2023-01-22T12:14:32.263Z,0.70
2023-01-22T12:17:08.922Z,0.75
2023-01-22T12:20:01.057Z,0.80
2023-01-22T12:22:39.245Z,0.70
2023-01-22T12:25:16.617Z,0.57
2023-01-22T12:27:50.665Z,0.85
2023-01-22T12:30:24.456Z,0.70
2023-01-22T12:32:56.732Z,0.73
2023-01-22T12:35:25.850Z,0.80
2023-01-22T12:38:02.723Z,0.57
2023-01-22T12:40:45.564Z,0.60
2023-01-22T12:43:13.390Z,0.82
2023-01-22T12:45:50.396Z,0.55
2023-01-22T12:48:26.928Z,0.70
2023-01-22T12:50:56.437Z,0.70
2023-01-22T12:53:28.137Z,0.68
2023-01-22T12:56:02.629Z,0.82
2023-01-22T12:58:32.768Z,0.82
2023-01-22T13:01:06.292Z,0.60
2023-01-22T13:03:34.765Z,1.25
2023-01-22T13:06:04.177Z,0.55
2023-01-22T13:08:42.269Z,0.60
2023-01-22T13:11:12.152Z,0.80
2023-01-22T13:14:23.490Z,0.60
2023-01-22T13:16:34.634Z,0.50
2023-01-22T13:19:17.840Z,0.60
2023-01-22T13:21:46.276Z,0.70
2023-01-22T13:24:18.218Z,0.85
2023-01-22T13:26:53.051Z,0.93
2023-01-22T13:29:27.030Z,0.80
2023-01-22T13:31:57.597Z,0.60
2023-01-22T13:34:26.439Z,0.80
2023-01-22T13:36:55.395Z,1.02
2023-01-22T13:39:28.119Z,0.75
2023-01-22T13:41:58.860Z,0.82
2023-01-22T13:44:31.124Z,0.70
2023-01-22T13:46:58.974Z,0.80
2023-01-22T13:49:29.290Z,1.00
2023-01-22T13:52:03.088Z,1.20
2023-01-22T13:54:36.153Z,0.75
2023-01-22T13:57:05.418Z,0.90
2023-01-22T13:59:35.118Z,0.70
2023-01-22T14:02:13.592Z,0.70
2023-01-22T14:04:41.565Z,1.35
2023-01-22T14:07:09.908Z,1.73
2023-01-22T14:09:40.548Z,1.42
2023-01-22T14:12:16.366Z,1.60
2023-01-22T14:14:45.049Z,1.00
2023-01-22T14:17:28.617Z,1.15
2023-01-22T14:19:56.500Z,0.95
2023-01-22T14:22:24.767Z,0.95
2023-01-22T14:24:54.939Z,1.13
2023-01-22T14:27:23.830Z,0.60
2023-01-22T14:29:53.309Z,0.82
2023-01-22T14:32:21.355Z,0.80
2023-01-22T14:34:49.413Z,0.90
2023-01-22T14:37:17.611Z,0.80
2023-01-22T14:39:45.460Z,0.93
2023-01-22T14:42:14.621Z,0.80
2023-01-22T14:44:42.408Z,1.17
2023-01-22T14:47:10.207Z,1.00
2023-01-22T14:49:40.291Z,1.20
2023-01-22T14:52:08.096Z,0.82
2023-01-22T14:54:35.861Z,0.80
2023-01-22T14:57:04.156Z,1.05
2023-01-22T14:59:33.304Z,0.80
2023-01-22T15:02:01.141Z,0.75
2023-01-22T15:04:28.981Z,0.88
2023-01-22T15:06:56.944Z,0.60
2023-01-22T15:09:24.783Z,1.17
2023-01-22T15:11:52.571Z,1.27
2023-01-22T15:14:20.364Z,1.23
2023-01-22T15:16:49.560Z,1.13
2023-01-22T15:19:18.598Z,0.90
2023-01-22T15:21:46.809Z,0.90
2023-01-22T15:24:14.563Z,1.27
2023-01-22T15:26:42.819Z,1.20
2023-01-22T15:29:12.823Z,0.80
2023-01-22T15:31:41.463Z,0.70
2023-01-22T15:34:10.588Z,0.75
2023-01-22T15:36:40.424Z,0.77
2023-01-22T15:39:08.601Z,1.42
2023-01-22T15:41:38.149Z,1.50
2023-01-22T15:44:07.202Z,0.90
2023-01-22T15:46:37.087Z,0.60
2023-01-22T15:49:08.067Z,2.25
2023-01-22T15:51:37.528Z,1.95
2023-01-22T15:54:07.605Z,1.10
2023-01-22T15:56:38.475Z,1.80
2023-01-22T15:59:06.764Z,0.95
2023-01-22T16:01:35.191Z,1.33
2023-01-22T16:04:03.822Z,1.35
2023-01-22T16:06:33.387Z,1.00
2023-01-22T16:09:06.012Z,1.20
2023-01-22T16:11:34.319Z,1.35
2023-01-22T16:14:02.559Z,1.10
2023-01-22T16:16:31.783Z,1.20
2023-01-22T16:19:00.936Z,1.00
2023-01-22T16:21:29.186Z,0.95
2023-01-22T16:23:58.083Z,0.90
2023-01-22T16:26:29.859Z,1.10
2023-01-22T16:28:59.206Z,1.33
2023-01-22T16:31:29.198Z,1.38
2023-01-22T16:33:58.333Z,1.15
2023-01-22T16:36:29.431Z,2.13
2023-01-22T16:38:57.236Z,1.13
2023-01-22T16:41:28.756Z,1.13
2023-01-22T16:43:59.413Z,1.40
2023-01-22T16:46:29.300Z,1.08
2023-01-22T16:48:59.455Z,0.85
2023-01-22T16:51:28.579Z,1.02
2023-01-22T16:53:56.809Z,0.70
2023-01-22T16:56:24.642Z,0.90
2023-01-22T16:58:53.768Z,1.00
2023-01-22T17:01:22.442Z,1.45
2023-01-22T17:03:50.297Z,1.08
2023-01-22T17:06:24.040Z,1.10
2023-01-22T17:08:53.058Z,1.15
2023-01-22T17:11:21.205Z,0.88
2023-01-22T17:13:49.649Z,1.05
2023-01-22T17:16:19.596Z,1.20
2023-01-22T17:18:47.588Z,0.88
2023-01-22T17:21:17.620Z,1.40
2023-01-22T17:23:45.522Z,1.33
2023-01-22T17:26:15.555Z,0.88
2023-01-22T17:28:43.494Z,1.05
2023-01-22T17:31:15.250Z,0.85
2023-01-22T17:33:46.254Z,1.25
2023-01-22T17:36:16.174Z,1.42
2023-01-22T17:38:44.119Z,0.80
2023-01-22T17:41:14.140Z,1.00
2023-01-22T17:43:43.616Z,1.33
2023-01-22T17:46:13.799Z,1.13
2023-01-22T17:48:42.054Z,1.00
2023-01-22T17:51:13.535Z,1.08
2023-01-22T17:53:42.758Z,0.80
2023-01-22T17:56:12.664Z,1.50
2023-01-22T17:58:42.911Z,1.27
2023-01-22T18:01:12.884Z,1.00
2023-01-22T18:03:40.792Z,1.35
2023-01-22T18:06:09.170Z,0.85
2023-01-22T18:08:39.899Z,1.27
2023-01-22T18:11:09.447Z,0.90
2023-01-22T18:13:38.920Z,1.30
2023-01-22T18:16:08.154Z,1.00
2023-01-22T18:18:36.552Z,1.13
2023-01-22T18:21:04.724Z,1.25
2023-01-22T18:23:32.642Z,1.02
2023-01-22T18:26:06.124Z,0.93
2023-01-22T18:28:34.599Z,1.00
2023-01-22T18:31:06.353Z,1.00
2023-01-22T18:33:35.933Z,1.00
2023-01-22T18:36:05.571Z,1.00
2023-01-22T18:38:34.420Z,1.55
2023-01-22T18:41:07.440Z,1.23
2023-01-22T18:43:35.478Z,1.38
2023-01-22T18:46:04.026Z,1.30
2023-01-22T18:48:31.883Z,1.08
2023-01-22T18:50:59.819Z,1.13
2023-01-22T18:53:28.894Z,1.13
2023-01-22T18:55:59.916Z,1.40
2023-01-22T18:58:30.914Z,0.93
2023-01-22T19:01:08.868Z,1.02
2023-01-22T19:03:37.139Z,1.55
2023-01-22T19:06:05.632Z,0.90
2023-01-22T19:08:34.815Z,1.60
2023-01-22T19:11:06.172Z,1.40
2023-01-22T19:13:36.130Z,1.15
2023-01-22T19:16:06.382Z,0.80
2023-01-22T19:18:34.299Z,1.27
2023-01-22T19:21:07.624Z,1.58
2023-01-22T19:23:36.664Z,1.10
2023-01-22T19:26:07.002Z,0.90
2023-01-22T19:28:36.140Z,1.38
2023-01-22T19:31:04.105Z,0.85
2023-01-22T19:33:31.950Z,0.95
2023-01-22T19:35:59.832Z,1.00
2023-01-22T19:38:28.441Z,1.30
2023-01-22T19:40:56.273Z,1.08
2023-01-22T19:43:24.176Z,0.68
2023-01-22T19:45:53.333Z,1.25
2023-01-22T19:48:21.368Z,1.00
2023-01-22T19:50:57.926Z,1.98
2023-01-22T19:53:26.125Z,0.90
2023-01-22T19:55:53.960Z,1.15
2023-01-22T19:58:22.383Z,1.60
2023-01-22T20:00:50.331Z,1.77
2023-01-22T20:03:19.533Z,1.45
2023-01-22T20:05:47.383Z,1.20
2023-01-22T20:08:16.689Z,0.98
2023-01-22T20:10:44.476Z,1.10
2023-01-22T20:13:12.810Z,1.10
2023-01-22T20:15:41.521Z,1.85
2023-01-22T20:18:10.412Z,0.93
2023-01-22T20:20:39.569Z,1.38
2023-01-22T20:23:07.453Z,1.90
2023-01-22T20:25:35.283Z,0.88
2023-01-22T20:28:03.315Z,1.30
2023-01-22T20:30:31.312Z,1.23
2023-01-22T20:32:59.152Z,1.67
2023-01-22T20:35:27.648Z,1.25
2023-01-22T20:37:56.787Z,1.10
2023-01-22T20:40:25.267Z,1.27
2023-01-22T20:42:53.173Z,1.08
2023-01-22T20:45:21.363Z,1.45
2023-01-22T20:47:49.407Z,1.45
2023-01-22T20:50:17.802Z,0.82
2023-01-22T20:52:45.577Z,0.90
2023-01-22T20:55:15.510Z,1.17
2023-01-22T20:57:43.536Z,0.82
2023-01-22T21:00:12.668Z,1.50
2023-01-22T21:02:40.471Z,1.00
2023-01-22T21:05:09.077Z,1.55
2023-01-22T21:07:36.945Z,1.13
2023-01-22T21:10:05.263Z,1.38
2023-01-22T21:12:34.506Z,1.10
2023-01-22T21:15:02.987Z,1.30
2023-01-22T21:17:32.237Z,1.23
2023-01-22T21:20:00.387Z,1.20
2023-01-22T21:22:28.217Z,1.23
2023-01-22T21:24:55.986Z,1.00
2023-01-22T21:27:23.774Z,1.20
2023-01-22T21:29:52.887Z,1.17
2023-01-22T21:32:20.644Z,1.40
2023-01-22T21:34:49.152Z,0.93
2023-01-22T21:37:16.962Z,1.10
2023-01-22T21:39:45.062Z,1.05
2023-01-22T21:42:30.256Z,1.33
2023-01-22T21:45:17.101Z,1.15
2023-01-22T21:47:44.907Z,1.63
2023-01-22T21:50:12.932Z,0.80
2023-01-22T21:52:42.438Z,1.27
2023-01-22T21:55:11.225Z,1.05
2023-01-22T21:57:39.003Z,1.20
2023-01-22T22:00:09.917Z,1.00
2023-01-22T22:02:37.889Z,0.90
2023-01-22T22:05:07.173Z,1.02
2023-01-22T22:07:34.962Z,1.20
2023-01-22T22:10:02.812Z,1.92
2023-01-22T22:12:31.258Z,0.95
2023-01-22T22:14:59.098Z,1.00
2023-01-22T22:17:28.215Z,1.38
2023-01-22T22:19:57.150Z,0.95
2023-01-22T22:22:25.055Z,0.85
2023-01-22T22:24:53.710Z,1.00
2023-01-22T22:27:21.540Z,1.40
2023-01-22T22:29:49.343Z,0.95
2023-01-22T22:32:17.254Z,1.10
2023-01-22T22:34:46.340Z,1.38
2023-01-22T22:37:14.119Z,1.02
2023-01-22T22:39:42.182Z,1.10
2023-01-22T22:42:10.219Z,1.13
2023-01-22T22:44:38.300Z,1.20
2023-01-22T22:47:06.472Z,1.30
2023-01-22T22:49:34.236Z,1.33
2023-01-22T22:52:03.366Z,1.15
2023-01-22T22:54:31.174Z,1.00
2023-01-22T22:56:58.982Z,1.45
2023-01-22T22:59:27.233Z,1.17
2023-01-22T23:01:55.031Z,1.08
2023-01-22T23:04:22.874Z,1.00
2023-01-22T23:06:51.889Z,0.70
2023-01-22T23:09:21.586Z,0.98
2023-01-22T23:11:51.545Z,1.40
2023-01-22T23:14:19.803Z,1.15
2023-01-22T23:16:47.696Z,0.90
2023-01-22T23:19:17.223Z,1.23
2023-01-22T23:21:46.419Z,1.40
2023-01-22T23:24:15.277Z,0.90
2023-01-22T23:26:45.459Z,1.15
2023-01-22T23:29:15.926Z,1.52
2023-01-22T23:31:44.069Z,1.60
2023-01-22T23:34:16.002Z,1.67
2023-01-22T23:36:45.420Z,0.98
2023-01-22T23:39:15.095Z,1.60
2023-01-22T23:41:44.761Z,1.50
2023-01-22T23:44:12.964Z,1.50
2023-01-22T23:46:41.297Z,1.58
2023-01-22T23:49:09.122Z,1.20
2023-01-22T23:51:40.850Z,1.65
2023-01-22T23:54:08.719Z,2.80
2023-01-22T23:56:37.347Z,1.70
2023-01-22T23:59:06.674Z,1.83
